createdAt,value
2019-03-04T00:02:28.280Z,3.40
2019-03-04T00:04:59.009Z,3.40
2019-03-04T00:07:29.642Z,3.40
2019-03-04T00:10:00.337Z,3.30
2019-03-04T00:12:30.907Z,3.30
2019-03-04T00:15:02.498Z,3.30
2019-03-04T00:17:33.118Z,3.30
2019-03-04T00:20:04.939Z,3.30
2019-03-04T00:22:35.458Z,3.20
2019-03-04T00:25:07.054Z,3.30
2019-03-04T00:27:37.561Z,3.20
2019-03-04T00:30:11.522Z,3.20
2019-03-04T00:32:47.782Z,3.20
2019-03-04T00:35:18.317Z,3.20
2019-03-04T00:37:49.867Z,3.40
2019-03-04T00:40:20.472Z,3.20
2019-03-04T00:42:51.141Z,3.20
2019-03-04T00:45:21.681Z,3.20
2019-03-04T00:47:52.458Z,3.30
2019-03-04T00:50:23.097Z,3.30
2019-03-04T00:52:53.727Z,3.30
2019-03-04T00:55:24.257Z,3.30
2019-03-04T00:57:54.905Z,3.20
2019-03-04T01:00:27.898Z,3.20
2019-03-04T01:02:58.494Z,3.20
2019-03-04T01:05:29.119Z,3.10
2019-03-04T01:07:59.686Z,3.00
2019-03-04T01:10:30.201Z,3.10
2019-03-04T01:16:01.246Z,3.00
2019-03-04T01:18:31.919Z,2.70
2019-03-04T01:21:02.386Z,2.90
2019-03-04T01:23:34.528Z,2.90
2019-03-04T01:26:05.286Z,2.90
2019-03-04T01:28:35.664Z,2.80
2019-03-04T01:31:06.370Z,2.90
2019-03-04T01:33:36.852Z,2.80
2019-03-04T01:36:07.586Z,2.90
2019-03-04T01:38:38.105Z,2.90
2019-03-04T01:41:09.274Z,2.90
2019-03-04T01:43:39.794Z,2.80
2019-03-04T01:46:10.375Z,2.80
2019-03-04T01:48:40.784Z,2.70
2019-03-04T01:51:11.349Z,2.70
2019-03-04T01:53:42.809Z,2.60
2019-03-04T01:56:13.387Z,2.60
2019-03-04T01:58:43.793Z,2.60
2019-03-04T02:01:15.236Z,2.50
2019-03-04T02:03:46.715Z,2.50
2019-03-04T02:06:17.407Z,2.50
2019-03-04T02:08:48.152Z,2.50
2019-03-04T02:11:18.655Z,2.50
2019-03-04T02:13:51.308Z,2.50
2019-03-04T02:16:35.143Z,2.50
2019-03-04T02:19:05.774Z,2.50
2019-03-04T02:21:36.170Z,2.50
2019-03-04T02:24:25.223Z,2.50
2019-03-04T02:26:56.244Z,2.50
2019-03-04T02:29:28.312Z,2.50
2019-03-04T02:32:00.783Z,2.60
2019-03-04T02:34:31.231Z,2.50
2019-03-04T02:37:01.859Z,2.50
2019-03-04T02:39:32.910Z,2.50
2019-03-04T02:42:03.499Z,2.50
2019-03-04T02:44:34.109Z,2.40
2019-03-04T02:47:04.753Z,2.50
2019-03-04T02:49:35.349Z,2.70
2019-03-04T02:52:06.119Z,2.50
2019-03-04T02:54:36.657Z,2.50
2019-03-04T02:57:07.210Z,2.60
2019-03-04T02:59:37.637Z,2.60
2019-03-04T03:02:09.426Z,2.60
2019-03-04T03:04:39.956Z,2.60
2019-03-04T03:07:10.553Z,2.60
2019-03-04T03:09:42.003Z,2.60
2019-03-04T03:12:12.489Z,2.70
2019-03-04T03:14:42.870Z,2.60
2019-03-04T03:17:13.347Z,2.60
2019-03-04T03:19:43.862Z,2.60
2019-03-04T03:22:14.605Z,2.60
2019-03-04T03:24:44.985Z,2.60
2019-03-04T03:27:15.426Z,2.60
2019-03-04T03:29:45.926Z,2.50
2019-03-04T03:32:16.377Z,2.50
2019-03-04T03:34:46.914Z,2.50
2019-03-04T03:37:17.530Z,2.50
2019-03-04T03:39:48.127Z,2.50
2019-03-04T03:42:19.280Z,2.50
2019-03-04T03:44:49.806Z,2.40
2019-03-04T03:47:20.276Z,2.40
2019-03-04T03:50:09.615Z,2.40
2019-03-04T03:52:40.118Z,2.40
2019-03-04T03:55:13.390Z,2.40
2019-03-04T03:57:43.975Z,2.40
2019-03-04T04:00:22.729Z,2.40
2019-03-04T04:02:54.114Z,2.40
2019-03-04T04:05:24.590Z,2.40
2019-03-04T04:07:55.038Z,2.40
2019-03-04T04:10:26.369Z,2.40
2019-03-04T04:12:56.894Z,2.40
2019-03-04T04:15:28.632Z,2.40
2019-03-04T04:17:59.038Z,2.40
2019-03-04T04:20:29.558Z,2.50
2019-03-04T04:23:00.240Z,2.30
2019-03-04T04:25:31.732Z,2.40
2019-03-04T04:28:03.901Z,2.40
2019-03-04T04:30:37.113Z,2.40
2019-03-04T04:33:07.635Z,2.40
2019-03-04T04:35:38.351Z,2.30
2019-03-04T04:38:08.934Z,2.30
2019-03-04T04:40:39.413Z,2.40
2019-03-04T04:43:10.751Z,2.60
2019-03-04T04:45:42.033Z,2.40
2019-03-04T04:48:12.427Z,2.30
2019-03-04T04:50:42.888Z,2.30
2019-03-04T04:53:13.513Z,2.30
2019-03-04T04:55:44.081Z,2.30
2019-03-04T04:58:14.602Z,2.30
2019-03-04T05:00:45.000Z,2.40
2019-03-04T05:03:16.532Z,2.40
2019-03-04T05:05:47.271Z,2.40
2019-03-04T05:08:17.839Z,2.30
2019-03-04T05:10:48.372Z,2.30
2019-03-04T05:13:18.831Z,2.30
2019-03-04T05:15:49.289Z,2.40
2019-03-04T05:28:18.931Z,2.40
2019-03-04T05:30:49.391Z,2.40
2019-03-04T05:33:20.327Z,2.40
2019-03-04T05:35:50.737Z,2.40
2019-03-04T05:38:21.230Z,2.50
2019-03-04T05:50:49.422Z,2.70
2019-03-04T05:53:19.799Z,2.70
2019-03-04T05:55:50.379Z,2.80
2019-03-04T05:58:20.935Z,2.80
2019-03-04T06:01:14.556Z,2.80
2019-03-04T06:03:49.123Z,2.90
2019-03-04T06:06:40.346Z,2.90
2019-03-04T06:09:12.610Z,3.00
2019-03-04T06:14:11.415Z,3.00
2019-03-04T06:16:47.339Z,3.10
2019-03-04T06:19:14.070Z,3.10
2019-03-04T06:21:44.780Z,3.30
2019-03-04T06:24:15.280Z,3.50
2019-03-04T06:26:44.965Z,3.30
2019-03-04T06:29:15.496Z,3.40
2019-03-04T06:31:46.032Z,3.50
2019-03-04T06:34:16.633Z,3.60
2019-03-04T06:36:47.955Z,4.00
2019-03-04T06:39:18.351Z,4.00
2019-03-04T06:41:48.881Z,4.40
2019-03-04T06:44:19.738Z,4.50
2019-03-04T06:46:50.262Z,4.60
2019-03-04T06:49:20.888Z,4.60
2019-03-04T06:51:51.504Z,4.40
2019-03-04T06:54:26.523Z,4.50
2019-03-04T06:57:11.037Z,4.40
2019-03-04T06:59:51.815Z,4.50
2019-03-04T07:02:42.233Z,4.60
2019-03-04T07:05:43.896Z,4.60
2019-03-04T07:08:39.360Z,4.70
2019-03-04T07:11:09.930Z,5.00
2019-03-04T07:13:40.467Z,5.10
2019-03-04T07:16:10.967Z,5.50
2019-03-04T07:18:41.413Z,5.80
2019-03-04T07:21:13.079Z,5.90
2019-03-04T07:23:43.730Z,5.90
2019-03-04T07:26:16.262Z,6.30
2019-03-04T07:28:46.850Z,6.70
2019-03-04T07:31:17.423Z,7.00
2019-03-04T07:33:47.934Z,7.20
2019-03-04T07:36:18.326Z,7.40
2019-03-04T07:38:57.609Z,7.70
2019-03-04T07:41:29.274Z,8.20
2019-03-04T07:43:59.695Z,8.60
2019-03-04T07:46:30.332Z,8.80
2019-03-04T07:49:00.802Z,9.10
2019-03-04T07:51:31.339Z,9.20
2019-03-04T07:54:01.845Z,9.30
2019-03-04T07:56:32.358Z,9.40
2019-03-04T07:59:02.997Z,9.60
2019-03-04T08:01:33.694Z,9.90
2019-03-04T08:04:04.489Z,11.00
2019-03-04T08:06:35.963Z,11.90
2019-03-04T08:09:34.999Z,12.60
2019-03-04T08:12:34.116Z,13.10
2019-03-04T08:15:07.577Z,14.40
2019-03-04T08:17:38.163Z,14.40
2019-03-04T08:20:09.684Z,14.90
2019-03-04T08:22:40.581Z,15.70
2019-03-04T08:25:11.974Z,16.20
2019-03-04T08:27:42.855Z,16.00
2019-03-04T08:30:17.693Z,15.10
2019-03-04T08:32:48.292Z,15.10
2019-03-04T08:35:18.900Z,15.10
2019-03-04T08:37:49.485Z,16.10
2019-03-04T08:40:20.135Z,17.20
2019-03-04T08:42:50.563Z,18.30
2019-03-04T08:45:21.509Z,19.10
2019-03-04T08:47:54.793Z,19.80
2019-03-04T08:50:26.217Z,19.70
2019-03-04T08:52:56.824Z,19.80
2019-03-04T08:55:27.356Z,19.30
2019-03-04T08:57:57.862Z,19.20
2019-03-04T09:00:31.832Z,18.90
2019-03-04T09:03:02.482Z,19.40
2019-03-04T09:05:34.413Z,20.00
2019-03-04T09:08:06.940Z,20.60
2019-03-04T09:10:38.818Z,20.80
2019-03-04T09:13:09.491Z,20.30
2019-03-04T09:15:40.110Z,20.10
2019-03-04T09:18:10.701Z,20.30
2019-03-04T09:20:42.128Z,20.30
2019-03-04T09:23:12.715Z,20.70
2019-03-04T09:26:05.357Z,20.50
2019-03-04T09:28:35.947Z,20.20
2019-03-04T09:31:06.490Z,19.80
2019-03-04T09:33:37.114Z,19.60
2019-03-04T09:36:07.943Z,19.50
2019-03-04T09:38:38.456Z,19.20
2019-03-04T09:41:08.993Z,19.00
2019-03-04T09:43:39.553Z,19.20
2019-03-04T09:46:10.186Z,19.10
2019-03-04T09:48:40.785Z,19.40
2019-03-04T09:51:12.460Z,19.70
2019-03-04T09:53:43.220Z,19.80
2019-03-04T09:56:13.911Z,20.10
2019-03-04T09:58:44.573Z,20.00
2019-03-04T10:01:34.448Z,20.40
2019-03-04T10:04:15.406Z,20.70
2019-03-04T10:06:53.378Z,20.80
2019-03-04T10:09:52.670Z,20.40
2019-03-04T10:12:54.540Z,20.60
2019-03-04T10:15:55.487Z,20.40
2019-03-04T10:18:35.855Z,20.70
2019-03-04T10:21:22.937Z,21.20
2019-03-04T10:24:29.111Z,21.20
2019-03-04T10:27:21.431Z,21.50
2019-03-04T10:30:08.313Z,21.50
2019-03-04T10:33:31.796Z,20.90
2019-03-04T10:36:21.371Z,20.80
2019-03-04T10:39:15.132Z,21.30
2019-03-04T10:42:20.330Z,21.40
2019-03-04T10:45:25.539Z,21.50
2019-03-04T10:47:56.062Z,21.60
2019-03-04T10:50:26.707Z,21.10
2019-03-04T10:52:57.390Z,21.00
2019-03-04T10:55:27.997Z,21.10
2019-03-04T10:57:58.548Z,20.90
2019-03-04T11:00:29.192Z,20.70
2019-03-04T11:02:59.811Z,20.80
2019-03-04T11:05:29.277Z,20.70
2019-03-04T11:08:00.695Z,20.80
2019-03-04T11:10:32.207Z,21.00
2019-03-04T11:13:02.757Z,21.30
2019-03-04T11:15:34.444Z,21.60
2019-03-04T11:18:06.002Z,21.90
2019-03-04T11:20:36.703Z,22.10
2019-03-04T11:23:07.885Z,21.90
2019-03-04T11:25:38.531Z,22.10
2019-03-04T11:28:09.162Z,22.20
2019-03-04T11:30:39.882Z,22.20
2019-03-04T11:33:10.528Z,22.10
2019-03-04T11:35:41.092Z,22.30
2019-03-04T11:38:44.724Z,22.40
2019-03-04T11:41:18.932Z,22.60
2019-03-04T11:43:49.573Z,22.40
2019-03-04T11:46:21.766Z,22.10
2019-03-04T11:48:52.398Z,21.90
2019-03-04T11:51:22.861Z,21.70
2019-03-04T11:53:53.333Z,21.80
2019-03-04T11:56:23.860Z,21.90
2019-03-04T11:58:54.353Z,21.90
2019-03-04T12:01:44.712Z,22.20
2019-03-04T12:04:15.326Z,22.30
2019-03-04T12:06:45.906Z,22.10
2019-03-04T12:09:16.719Z,21.90
2019-03-04T12:11:49.437Z,21.80
2019-03-04T12:14:19.887Z,21.60
2019-03-04T12:16:50.405Z,21.70
2019-03-04T12:19:20.820Z,21.60
2019-03-04T12:21:51.368Z,21.60
2019-03-04T12:24:22.439Z,21.70
2019-03-04T12:26:53.055Z,21.60
2019-03-04T12:29:23.652Z,21.40
2019-03-04T12:31:55.908Z,21.60
2019-03-04T12:34:26.472Z,21.50
2019-03-04T12:36:57.055Z,21.40
2019-03-04T12:39:27.634Z,21.70
2019-03-04T12:41:58.112Z,21.90
2019-03-04T12:44:28.691Z,21.50
2019-03-04T12:46:59.154Z,21.60
2019-03-04T12:49:29.739Z,21.80
2019-03-04T12:52:00.214Z,21.80
2019-03-04T12:54:30.833Z,22.00
2019-03-04T12:57:02.800Z,21.90
2019-03-04T12:59:33.280Z,21.70
2019-03-04T13:02:03.801Z,21.50
2019-03-04T13:04:34.296Z,21.30
2019-03-04T13:07:04.925Z,21.30
2019-03-04T13:09:35.356Z,21.20
2019-03-04T13:12:07.061Z,21.30
2019-03-04T13:14:38.472Z,21.30
2019-03-04T13:17:09.189Z,21.30
2019-03-04T13:19:39.861Z,21.40
2019-03-04T13:22:10.506Z,21.30
2019-03-04T13:24:40.879Z,21.10
2019-03-04T13:27:11.559Z,21.30
2019-03-04T13:29:42.077Z,21.10
2019-03-04T13:32:12.684Z,21.10
2019-03-04T13:34:43.264Z,21.10
2019-03-04T13:37:14.555Z,21.00
2019-03-04T13:39:45.086Z,20.90
2019-03-04T13:42:15.724Z,20.90
2019-03-04T13:44:46.203Z,20.90
2019-03-04T13:47:16.694Z,20.90
2019-03-04T13:49:47.224Z,20.80
2019-03-04T13:52:17.882Z,20.60
2019-03-04T13:54:48.297Z,20.60
2019-03-04T13:57:20.005Z,20.60
2019-03-04T13:59:50.447Z,20.60
2019-03-04T14:02:21.058Z,20.50
2019-03-04T14:04:52.125Z,20.50
2019-03-04T14:07:26.685Z,20.50
2019-03-04T14:09:59.261Z,20.40
2019-03-04T14:12:30.691Z,20.40
2019-03-04T14:15:01.194Z,20.40
2019-03-04T14:17:31.778Z,20.30
2019-03-04T14:20:02.233Z,20.30
2019-03-04T14:22:40.097Z,20.40
2019-03-04T14:25:08.995Z,20.40
2019-03-04T14:27:50.949Z,20.40
2019-03-04T14:30:23.457Z,20.30
2019-03-04T14:32:53.930Z,20.30
2019-03-04T14:35:24.538Z,20.10
2019-03-04T14:37:55.830Z,20.10
2019-03-04T14:40:26.449Z,20.00
2019-03-04T14:42:57.278Z,19.80
2019-03-04T14:45:28.870Z,19.80
2019-03-04T14:47:59.500Z,19.80
2019-03-04T14:50:30.081Z,19.90
2019-03-04T14:53:00.575Z,19.70
2019-03-04T14:55:37.159Z,19.60
2019-03-04T14:58:07.861Z,19.70
2019-03-04T15:00:43.049Z,19.70
2019-03-04T15:03:22.083Z,19.60
2019-03-04T15:05:46.903Z,19.60
2019-03-04T15:08:17.391Z,19.50
2019-03-04T15:10:47.894Z,19.20
2019-03-04T15:13:20.752Z,18.90
2019-03-04T15:16:00.770Z,18.80
2019-03-04T15:18:23.606Z,18.90
2019-03-04T15:20:54.045Z,18.80
2019-03-04T15:23:35.190Z,18.30
2019-03-04T15:26:05.982Z,18.30
2019-03-04T15:28:36.455Z,18.00
2019-03-04T15:33:47.081Z,17.60
2019-03-04T15:36:17.692Z,17.50
2019-03-04T15:38:48.174Z,17.30
2019-03-04T15:41:18.633Z,17.20
2019-03-04T15:43:49.260Z,16.80
2019-03-04T15:46:20.259Z,16.70
2019-03-04T15:48:50.867Z,16.70
2019-03-04T15:51:21.478Z,16.70
2019-03-04T15:53:52.641Z,16.50
2019-03-04T15:56:23.241Z,16.40
2019-03-04T15:58:53.752Z,16.20
2019-03-04T16:01:25.164Z,16.20
2019-03-04T16:03:55.708Z,16.20
2019-03-04T16:06:26.292Z,16.10
2019-03-04T16:08:56.798Z,16.00
2019-03-04T16:11:27.512Z,15.90
2019-03-04T16:13:58.852Z,16.00
2019-03-04T16:16:29.510Z,15.90
2019-03-04T16:19:00.097Z,15.90
2019-03-04T16:21:31.589Z,15.60
2019-03-04T16:24:02.167Z,15.80
2019-03-04T16:26:33.314Z,15.70
2019-03-04T16:29:03.919Z,15.60
2019-03-04T16:31:34.459Z,15.60
2019-03-04T16:34:05.093Z,15.60
2019-03-04T16:36:36.582Z,15.60
2019-03-04T16:39:08.934Z,15.50
2019-03-04T16:41:39.648Z,15.40
2019-03-04T16:44:10.139Z,15.40
2019-03-04T16:46:40.689Z,15.30
2019-03-04T16:49:11.225Z,15.20
2019-03-04T16:51:42.255Z,15.10
2019-03-04T16:54:12.810Z,15.20
2019-03-04T16:56:43.326Z,15.10
2019-03-04T16:59:14.088Z,15.00
2019-03-04T17:01:44.796Z,15.00
2019-03-04T17:04:15.389Z,15.00
2019-03-04T17:06:46.034Z,15.00
2019-03-04T17:09:18.605Z,14.90
2019-03-04T17:11:49.268Z,14.80
2019-03-04T17:14:20.758Z,14.70
2019-03-04T17:16:51.307Z,14.60
2019-03-04T17:19:22.133Z,14.60
2019-03-04T17:21:53.402Z,14.60
2019-03-04T17:24:24.033Z,14.50
2019-03-04T17:26:54.617Z,14.50
2019-03-04T17:29:25.232Z,14.50
2019-03-04T17:31:55.828Z,14.40
2019-03-04T17:34:26.434Z,14.50
2019-03-04T17:36:57.361Z,14.50
2019-03-04T17:39:27.950Z,14.40
2019-03-04T17:41:59.514Z,14.40
2019-03-04T17:44:30.144Z,14.40
2019-03-04T17:47:02.272Z,14.40
2019-03-04T17:49:32.909Z,14.30
2019-03-04T17:52:07.068Z,14.30
2019-03-04T17:54:37.694Z,14.30
2019-03-04T17:57:09.680Z,14.20
2019-03-04T17:59:42.100Z,14.30
2019-03-04T18:02:13.775Z,14.30
2019-03-04T18:04:51.476Z,14.30
2019-03-04T18:07:22.018Z,14.30
2019-03-04T18:09:54.824Z,14.20
2019-03-04T18:12:26.636Z,14.30
2019-03-04T18:14:57.966Z,14.30
2019-03-04T18:17:28.515Z,14.30
2019-03-04T18:19:59.127Z,14.30
2019-03-04T18:22:30.019Z,14.20
2019-03-04T18:25:00.668Z,14.20
2019-03-04T18:27:39.861Z,14.20
2019-03-04T18:30:38.567Z,14.20
2019-03-04T18:33:28.818Z,14.10
2019-03-04T18:36:21.978Z,14.10
2019-03-04T18:39:39.444Z,14.10
2019-03-04T18:42:51.139Z,14.00
2019-03-04T18:46:10.663Z,14.00
2019-03-04T18:48:58.667Z,14.00
2019-03-04T18:51:32.629Z,13.90
2019-03-04T18:54:08.962Z,13.90
2019-03-04T18:56:40.994Z,14.20
2019-03-04T18:59:11.647Z,13.90
2019-03-04T19:01:42.669Z,13.90
2019-03-04T19:04:13.294Z,13.80
2019-03-04T19:06:45.314Z,13.90
2019-03-04T19:09:21.359Z,14.00
2019-03-04T19:11:52.841Z,13.80
2019-03-04T19:14:23.538Z,13.80
2019-03-04T19:16:55.086Z,13.80
2019-03-04T19:19:26.173Z,13.90
2019-03-04T19:22:03.628Z,13.90
2019-03-04T19:24:34.827Z,13.80
2019-03-04T19:27:05.669Z,13.90
2019-03-04T19:29:36.190Z,13.80
2019-03-04T19:32:06.877Z,13.80
2019-03-04T19:34:37.426Z,13.80
2019-03-04T19:37:07.996Z,13.70
2019-03-04T19:39:38.674Z,13.60
2019-03-04T19:42:09.658Z,13.60
2019-03-04T19:44:41.097Z,13.60
2019-03-04T19:47:12.787Z,13.50
2019-03-04T19:49:43.441Z,13.40
2019-03-04T19:52:14.274Z,13.50
2019-03-04T19:54:45.653Z,13.60
2019-03-04T19:57:16.633Z,13.40
2019-03-04T19:59:48.632Z,13.20
2019-03-04T20:02:19.234Z,13.00
2019-03-04T20:04:51.314Z,12.90
2019-03-04T20:07:21.960Z,12.70
2019-03-04T20:09:52.951Z,11.90
2019-03-04T20:12:23.559Z,12.10
2019-03-04T20:14:54.117Z,11.90
2019-03-04T20:17:26.682Z,11.90
2019-03-04T20:19:57.198Z,11.90
2019-03-04T20:22:28.672Z,11.90
2019-03-04T20:25:00.587Z,12.00
2019-03-04T20:27:31.348Z,12.00
2019-03-04T20:30:02.027Z,12.10
2019-03-04T20:32:32.655Z,11.90
2019-03-04T20:35:03.204Z,11.90
2019-03-04T20:37:33.825Z,11.90
2019-03-04T20:40:06.588Z,11.90
2019-03-04T20:42:37.205Z,11.80
2019-03-04T20:45:12.398Z,11.80
2019-03-04T20:47:43.275Z,11.80
2019-03-04T20:50:22.353Z,11.70
2019-03-04T20:52:55.417Z,11.70
2019-03-04T20:55:26.055Z,11.60
2019-03-04T20:57:56.876Z,11.60
2019-03-04T21:00:33.538Z,11.50
2019-03-04T21:03:06.151Z,11.50
2019-03-04T21:05:38.234Z,11.50
2019-03-04T21:08:09.655Z,11.50
2019-03-04T21:10:40.310Z,11.50
2019-03-04T21:13:35.251Z,11.50
2019-03-04T21:15:59.904Z,11.40
2019-03-04T21:18:32.292Z,11.40
2019-03-04T21:21:04.456Z,11.30
2019-03-04T21:23:35.484Z,11.30
2019-03-04T21:26:19.891Z,11.30
2019-03-04T21:29:29.848Z,11.30
2019-03-04T21:32:10.974Z,11.20
2019-03-04T21:35:12.750Z,11.10
2019-03-04T21:43:16.719Z,10.90
2019-03-04T21:46:27.915Z,10.80
2019-03-04T21:49:06.111Z,10.90
2019-03-04T21:52:00.754Z,10.80
2019-03-04T21:54:32.336Z,10.80
2019-03-04T21:57:13.529Z,10.80
2019-03-04T21:59:45.737Z,10.70
2019-03-04T22:02:43.133Z,10.60
2019-03-04T22:05:19.295Z,10.60
2019-03-04T22:07:50.339Z,10.50
2019-03-04T22:10:20.943Z,10.40
2019-03-04T22:12:51.946Z,10.40
2019-03-04T22:15:27.023Z,10.20
2019-03-04T22:17:57.741Z,10.10
2019-03-04T22:20:29.727Z,10.20
2019-03-04T22:23:01.098Z,10.20
2019-03-04T22:25:32.791Z,10.10
2019-03-04T22:28:03.629Z,10.20
2019-03-04T22:30:34.228Z,10.10
2019-03-04T22:33:05.933Z,10.10
2019-03-04T22:35:37.007Z,10.10
2019-03-04T22:38:07.863Z,10.10
2019-03-04T22:40:38.480Z,10.10
2019-03-04T22:43:09.170Z,10.00
2019-03-04T22:45:41.512Z,10.00
2019-03-04T22:48:12.791Z,10.00
2019-03-04T22:50:43.847Z,10.00
2019-03-04T22:53:21.492Z,9.90
2019-03-04T22:55:52.453Z,9.80
2019-03-04T22:58:28.718Z,9.80
2019-03-04T23:01:01.422Z,9.80
2019-03-04T23:03:38.218Z,9.80
2019-03-04T23:06:19.461Z,9.70
2019-03-04T23:08:50.160Z,9.70
2019-03-04T23:11:25.093Z,9.70
2019-03-04T23:14:04.020Z,9.60
2019-03-04T23:16:34.721Z,9.60
2019-03-04T23:19:05.760Z,9.60
2019-03-04T23:21:38.785Z,9.60
2019-03-04T23:24:09.334Z,9.50
2019-03-04T23:26:40.016Z,9.50
2019-03-04T23:29:10.983Z,9.50
2019-03-04T23:31:41.575Z,9.40
2019-03-04T23:34:13.731Z,9.40
2019-03-04T23:36:44.337Z,9.40
2019-03-04T23:39:16.752Z,9.30
2019-03-04T23:41:49.349Z,9.40
2019-03-04T23:44:24.599Z,9.40
2019-03-04T23:46:57.193Z,9.20
2019-03-04T23:49:31.293Z,9.20
2019-03-04T23:52:03.951Z,9.30
2019-03-04T23:54:34.418Z,9.20
2019-03-04T23:57:09.939Z,9.20
2019-03-04T23:59:42.083Z,9.20
